• Join FlightAware (Why Join?)
  • Login
  • US Flag 
04:26AM EDT


 

Airport Tracker/Info


-or-


 

Live Flight TrackerFlight Track Log ✈ JZA8199 ✈ 20-Jun-2013 ✈ CYKA - CYVR

Flight Track Log - Related Links

Times and Time Zones

All times are in EDT time to prevent confusion due to time zone crossing. See the JZA8199 flight status page for this flight to view local times or setup timezone preferences in your user account.

Time Position Orientation Groundspeed Altitude Reporting Facility
EDT Latitude Longitude Course Direction KTS MPH feet Rate Location/Type
11:55PM 50.7000 -120.5000 236° Southwest 140 161 3,300  Level Vancouver Center
11:56PM 50.7167 -120.5500 298° West 150 173 4,700 1,380 Climbing Vancouver Center
11:57PM 50.7167 -120.6333 270° West 150 173 6,100 1,260 Climbing Vancouver Center
11:58PM 50.7167 -120.6833 270° West 150 173 7,300 1,140 Climbing Vancouver Center
11:59PM 50.6833 -120.7333 224° Southwest 170 196 8,400 900 Climbing Vancouver Center
12:00AM 50.3683 -120.5931 210° Southwest  Level FlightAware Approximate
12:00AM 50.6333 -120.8000 220° Southwest 190 219 9,200  Level Vancouver Center
12:01AM 50.3369 -120.6658 236° Southwest  Level Estimated
12:01AM 50.5833 -120.8500 212° Southwest 210 242 10,500  Level Vancouver Center
12:02AM 50.5333 -120.9167 220° Southwest 210 242 11,500 960 Climbing Vancouver Center
12:04AM 50.4167 -120.9667 195° South 220 253 13,400 900 Climbing Vancouver Center
12:05AM 50.3833 -121.0167 224° Southwest 230 265 14,300 900 Climbing Vancouver Center
12:06AM 50.3333 -121.1000 227° Southwest 230 265 15,200 780 Climbing Vancouver Center
12:07AM 50.2833 -121.1667 220° Southwest 240 276 15,900 360 Climbing Vancouver Center
12:08AM 50.2167 -121.2167 206° Southwest 260 299 16,000  Climbing Vancouver Center
12:09AM 50.1500 -121.3000 219° Southwest 280 322 16,000  Level Vancouver Center
12:10AM 50.0833 -121.3833 219° Southwest 290 334 16,100  Climbing Vancouver Center
12:11AM 50.0167 -121.4667 219° Southwest 300 345 16,100  Level Vancouver Center
12:12AM 49.9500 -121.5167 206° Southwest 300 345 16,100  Level Vancouver Center
12:13AM 49.8833 -121.6000 219° Southwest 300 345 16,100  Level Vancouver Center
12:14AM 49.8167 -121.6833 219° Southwest 300 345 16,100 -60 Level Vancouver Center
12:15AM 49.7500 -121.7500 213° Southwest 300 345 16,000 -120 Descending Vancouver Center
12:16AM 49.6833 -121.8667 229° Southwest 310 357 15,900 -720 Descending Vancouver Center
12:17AM 49.6167 -121.9667 224° Southwest 320 368 14,600 -1,320 Descending Vancouver Center
12:18AM 49.5833 -122.0667 243° Southwest 330 380 13,300 -1,260 Descending Vancouver Center
12:19AM 49.5167 -122.1500 219° Southwest 320 368 12,100 -1,200 Descending Vancouver Center
12:20AM 49.4500 -122.2667 229° Southwest 300 345 11,000 -1,080 Descending Vancouver Center
12:21AM 49.4000 -122.3333 221° Southwest 290 334 10,000 -540 Descending Vancouver Center
12:22AM 49.3500 -122.4333 233° Southwest 280 322 10,000  Level Vancouver Center
12:23AM 49.3167 -122.5500 246° West 280 322 10,000  Level Vancouver Center
12:24AM 49.2667 -122.6500 233° Southwest 280 322 10,000  Level Vancouver Center
12:25AM 49.2500 -122.7500 256° West 280 322 10,000  Level Vancouver Center
12:26AM 49.2333 -122.8833 259° West 270 311 10,000 -240 Level Vancouver Center
12:27AM 49.2333 -122.9833 270° West 270 311 9,600 -960 Descending Vancouver Center
12:28AM 49.2500 -123.1167 281° West 280 322 8,100 -1,500 Descending Vancouver Center
12:29AM 49.2667 -123.2167 284° West 270 311 6,600 -1,500 Descending Vancouver Center
12:30AM 49.2667 -123.3167 270° West 260 299 5,100 -1,620 Descending Vancouver Center
12:31AM 49.2833 -123.4167 284° West 240 276 3,400 -1,320 Descending Vancouver Center
12:32AM 49.2167 -123.4333 189° South 230 265 2,500 -720 Descending Vancouver Center
12:33AM 49.2000 -123.3667 111° Southeast 200 230 2,000 -720 Descending Vancouver Center
12:34AM 49.2000 -123.2833 90° East 190 219 1,100 -900 Descending Vancouver Center
12:35AM 49.1833 -123.2167 111° Southeast 150 173 300 -840 Descending Vancouver Center